This is the latest recevied weather packets stored in our database for station/object OE7BJT-13. If no packets are shown the sender has not sent any weather packets the latest 10 day(s).
| Time | Temp. | Humidity | Pressure | Rain* | Wind** | Luminosity | Snow |
|---|---|---|---|---|---|---|---|
| 1777708676 | 17.78° C | 40% | 1024 hPa | - | - | - | - |
| 1777708071 | 16.11° C | 45% | 1024 hPa | - | - | - | - |
| 1777707465 | 15° C | 44% | 1024 hPa | - | - | - | - |
| 1777706860 | 14.44° C | 48% | 1024 hPa | - | - | - | - |
| 1777704437 | 13.33° C | 56% | 1024 hPa | - | - | - | - |
| 1777703832 | 14.44° C | 55% | 1024 hPa | - | - | - | - |
| 1777703226 | 10° C | 70% | 1024 hPa | - | - | - | - |
| 1777702620 | 9.44° C | 75% | 1024 hPa | - | - | - | - |
| 1777702015 | 7.78° C | 83% | 1024 hPa | - | - | - | - |
| 1777700804 | 6.67° C | 90% | 1024 hPa | - | - | - | - |
| 1777700198 | 5.56° C | 96% | 1025 hPa | - | - | - | - |
| 1777699592 | 6.11° C | 91% | 1025 hPa | - | - | - | - |
| 1777697775 | 5° C | 95% | 1025 hPa | - | - | - | - |
| 1777697170 | 4.44° C | 10% | - | - | - | - | - |
| 1777696564 | 4.44° C | 99% | 1025 hPa | - | - | - | - |
| 1777695959 | 3.89° C | 98% | 1025 hPa | - | - | - | - |
| 1777695353 | 3.89° C | 99% | 1025 hPa | - | - | - | - |
| 1777694747 | 4.44° C | 97% | 1024 hPa | - | - | - | - |
| 1777694142 | 4.44° C | 98% | 1025 hPa | - | - | - | - |
| 1777692930 | 3.89° C | 99% | 1024 hPa | - | - | - | - |
| 1777692325 | 3.89° C | 97% | 1024 hPa | - | - | - | - |
| 1777691719 | 4.44° C | 97% | 1024 hPa | - | - | - | - |
| 1777690508 | 4.44° C | 98% | 1025 hPa | - | - | - | - |
| 1777689902 | 4.44° C | 96% | 1025 hPa | - | - | - | - |
| 1777689297 | 5° C | 93% | 1025 hPa | - | - | - | - |
* Rain since midnight (hover to see other rain measurements)
** Current wind speed in m/s (hover to see current wind gust speed)